sensor_id;sensor_type;location;lat;lon;timestamp;P1;durP1;ratioP1;P2;durP2;ratioP2
6113;SDS011;3087;48.392;10.836;2022-09-03T00:01:36;5.47;;;3.00;;
6113;SDS011;3087;48.392;10.836;2022-09-03T00:04:29;2.80;;;2.33;;
6113;SDS011;3087;48.392;10.836;2022-09-03T00:07:06;3.67;;;2.72;;
6113;SDS011;3087;48.392;10.836;2022-09-03T00:09:38;3.45;;;2.53;;
6113;SDS011;3087;48.392;10.836;2022-09-03T00:12:15;3.05;;;2.30;;
6113;SDS011;3087;48.392;10.836;2022-09-03T00:14:52;2.78;;;2.42;;
6113;SDS011;3087;48.392;10.836;2022-09-03T00:17:23;2.75;;;2.30;;
6113;SDS011;3087;48.392;10.836;2022-09-03T00:25:39;3.50;;;2.67;;
6113;SDS011;3087;48.392;10.836;2022-09-03T00:28:15;4.57;;;2.65;;
6113;SDS011;3087;48.392;10.836;2022-09-03T00:30:45;2.25;;;2.05;;
6113;SDS011;3087;48.392;10.836;2022-09-03T00:33:19;3.58;;;2.85;;
6113;SDS011;3087;48.392;10.836;2022-09-03T00:35:53;3.80;;;1.83;;
6113;SDS011;3087;48.392;10.836;2022-09-03T00:38:26;4.38;;;2.80;;
6113;SDS011;3087;48.392;10.836;2022-09-03T00:51:49;3.13;;;2.60;;
6113;SDS011;3087;48.392;10.836;2022-09-03T00:54:05;2.30;;;2.10;;
6113;SDS011;3087;48.392;10.836;2022-09-03T00:56:47;3.15;;;2.30;;
6113;SDS011;3087;48.392;10.836;2022-09-03T01:10:29;3.58;;;2.75;;
6113;SDS011;3087;48.392;10.836;2022-09-03T01:13:40;4.47;;;2.67;;
6113;SDS011;3087;48.392;10.836;2022-09-03T01:22:08;4.05;;;2.45;;
6113;SDS011;3087;48.392;10.836;2022-09-03T01:25:16;4.55;;;2.70;;
6113;SDS011;3087;48.392;10.836;2022-09-03T01:30:57;4.05;;;2.40;;
6113;SDS011;3087;48.392;10.836;2022-09-03T01:36:16;4.18;;;2.65;;
6113;SDS011;3087;48.392;10.836;2022-09-03T01:39:01;3.13;;;2.40;;
6113;SDS011;3087;48.392;10.836;2022-09-03T01:47:49;3.90;;;2.60;;
6113;SDS011;3087;48.392;10.836;2022-09-03T01:50:27;4.20;;;2.70;;
6113;SDS011;3087;48.392;10.836;2022-09-03T01:55:45;3.22;;;2.65;;
6113;SDS011;3087;48.392;10.836;2022-09-03T01:58:20;3.05;;;2.50;;
6113;SDS011;3087;48.392;10.836;2022-09-03T02:00:48;4.03;;;2.75;;
6113;SDS011;3087;48.392;10.836;2022-09-03T02:03:21;3.88;;;3.10;;
6113;SDS011;3087;48.392;10.836;2022-09-03T02:05:49;2.80;;;2.05;;
6113;SDS011;3087;48.392;10.836;2022-09-03T02:08:17;3.65;;;2.80;;
6113;SDS011;3087;48.392;10.836;2022-09-03T02:10:46;4.03;;;2.50;;
6113;SDS011;3087;48.392;10.836;2022-09-03T02:15:40;3.25;;;2.65;;
6113;SDS011;3087;48.392;10.836;2022-09-03T02:18:21;3.78;;;2.78;;
6113;SDS011;3087;48.392;10.836;2022-09-03T02:20:54;2.50;;;2.20;;
6113;SDS011;3087;48.392;10.836;2022-09-03T02:23:23;3.70;;;2.10;;
6113;SDS011;3087;48.392;10.836;2022-09-03T02:25:57;3.05;;;2.30;;
6113;SDS011;3087;48.392;10.836;2022-09-03T02:28:27;3.17;;;2.60;;
6113;SDS011;3087;48.392;10.836;2022-09-03T02:30:54;3.80;;;2.55;;
6113;SDS011;3087;48.392;10.836;2022-09-03T02:33:20;3.10;;;2.63;;
6113;SDS011;3087;48.392;10.836;2022-09-03T02:35:46;3.58;;;2.55;;
6113;SDS011;3087;48.392;10.836;2022-09-03T02:38:14;2.55;;;2.30;;
6113;SDS011;3087;48.392;10.836;2022-09-03T02:40:42;6.18;;;3.42;;
6113;SDS011;3087;48.392;10.836;2022-09-03T02:43:10;3.20;;;2.33;;
6113;SDS011;3087;48.392;10.836;2022-09-03T02:45:45;3.20;;;2.50;;
6113;SDS011;3087;48.392;10.836;2022-09-03T02:48:13;2.97;;;2.28;;
6113;SDS011;3087;48.392;10.836;2022-09-03T02:50:43;3.63;;;2.60;;
6113;SDS011;3087;48.392;10.836;2022-09-03T02:53:08;3.72;;;3.05;;
6113;SDS011;3087;48.392;10.836;2022-09-03T02:55:34;2.60;;;2.38;;
6113;SDS011;3087;48.392;10.836;2022-09-03T02:58:00;4.90;;;2.65;;
6113;SDS011;3087;48.392;10.836;2022-09-03T03:00:25;2.97;;;2.40;;
6113;SDS011;3087;48.392;10.836;2022-09-03T03:02:53;4.65;;;2.63;;
6113;SDS011;3087;48.392;10.836;2022-09-03T03:05:23;3.55;;;2.72;;
6113;SDS011;3087;48.392;10.836;2022-09-03T03:07:54;3.53;;;2.50;;
6113;SDS011;3087;48.392;10.836;2022-09-03T03:10:20;3.53;;;2.40;;
6113;SDS011;3087;48.392;10.836;2022-09-03T03:12:46;3.28;;;2.20;;
6113;SDS011;3087;48.392;10.836;2022-09-03T03:15:29;3.75;;;2.70;;
6113;SDS011;3087;48.392;10.836;2022-09-03T03:21:12;5.82;;;2.83;;
6113;SDS011;3087;48.392;10.836;2022-09-03T03:23:43;3.15;;;2.67;;
6113;SDS011;3087;48.392;10.836;2022-09-03T03:26:21;4.75;;;2.78;;
6113;SDS011;3087;48.392;10.836;2022-09-03T03:28:48;3.85;;;2.83;;
6113;SDS011;3087;48.392;10.836;2022-09-03T03:31:16;2.83;;;2.38;;
6113;SDS011;3087;48.392;10.836;2022-09-03T03:33:48;3.35;;;3.05;;
6113;SDS011;3087;48.392;10.836;2022-09-03T03:36:16;2.85;;;2.55;;
6113;SDS011;3087;48.392;10.836;2022-09-03T03:38:42;3.78;;;2.63;;
6113;SDS011;3087;48.392;10.836;2022-09-03T03:41:16;4.10;;;3.70;;
6113;SDS011;3087;48.392;10.836;2022-09-03T03:43:43;3.20;;;2.40;;
6113;SDS011;3087;48.392;10.836;2022-09-03T03:46:09;2.90;;;2.28;;
6113;SDS011;3087;48.392;10.836;2022-09-03T03:48:36;3.22;;;2.70;;
6113;SDS011;3087;48.392;10.836;2022-09-03T03:51:03;3.28;;;2.67;;
6113;SDS011;3087;48.392;10.836;2022-09-03T03:53:31;4.05;;;2.97;;
6113;SDS011;3087;48.392;10.836;2022-09-03T03:55:59;2.67;;;2.45;;
6113;SDS011;3087;48.392;10.836;2022-09-03T03:58:29;7.00;;;6.18;;
6113;SDS011;3087;48.392;10.836;2022-09-03T04:01:06;3.03;;;2.67;;
6113;SDS011;3087;48.392;10.836;2022-09-03T04:03:34;3.25;;;2.60;;
6113;SDS011;3087;48.392;10.836;2022-09-03T04:06:00;3.60;;;2.33;;
6113;SDS011;3087;48.392;10.836;2022-09-03T04:08:27;3.33;;;2.78;;
6113;SDS011;3087;48.392;10.836;2022-09-03T04:10:53;2.70;;;2.50;;
6113;SDS011;3087;48.392;10.836;2022-09-03T04:13:19;5.45;;;2.92;;
6113;SDS011;3087;48.392;10.836;2022-09-03T04:15:45;4.25;;;2.60;;
6113;SDS011;3087;48.392;10.836;2022-09-03T04:18:10;2.75;;;2.45;;
6113;SDS011;3087;48.392;10.836;2022-09-03T04:20:36;3.75;;;2.92;;
6113;SDS011;3087;48.392;10.836;2022-09-03T04:23:03;4.05;;;2.95;;
6113;SDS011;3087;48.392;10.836;2022-09-03T04:25:30;4.43;;;3.88;;
6113;SDS011;3087;48.392;10.836;2022-09-03T04:27:55;4.40;;;2.45;;
6113;SDS011;3087;48.392;10.836;2022-09-03T04:30:21;3.92;;;2.70;;
6113;SDS011;3087;48.392;10.836;2022-09-03T04:32:50;4.00;;;2.70;;
6113;SDS011;3087;48.392;10.836;2022-09-03T04:35:20;4.07;;;2.65;;
6113;SDS011;3087;48.392;10.836;2022-09-03T04:37:47;5.57;;;2.55;;
6113;SDS011;3087;48.392;10.836;2022-09-03T04:40:13;3.40;;;2.72;;
6113;SDS011;3087;48.392;10.836;2022-09-03T04:42:39;3.22;;;2.30;;
6113;SDS011;3087;48.392;10.836;2022-09-03T04:45:05;4.18;;;2.40;;
6113;SDS011;3087;48.392;10.836;2022-09-03T04:47:31;4.63;;;2.90;;
6113;SDS011;3087;48.392;10.836;2022-09-03T04:49:57;4.43;;;2.60;;
6113;SDS011;3087;48.392;10.836;2022-09-03T04:52:22;3.17;;;2.88;;
6113;SDS011;3087;48.392;10.836;2022-09-03T04:54:49;5.00;;;3.08;;
6113;SDS011;3087;48.392;10.836;2022-09-03T04:57:15;4.47;;;3.00;;
6113;SDS011;3087;48.392;10.836;2022-09-03T04:59:40;5.25;;;3.22;;
6113;SDS011;3087;48.392;10.836;2022-09-03T05:02:07;4.47;;;3.10;;
6113;SDS011;3087;48.392;10.836;2022-09-03T05:04:34;3.00;;;2.70;;
6113;SDS011;3087;48.392;10.836;2022-09-03T05:07:00;4.07;;;2.58;;
6113;SDS011;3087;48.392;10.836;2022-09-03T05:09:26;3.33;;;2.70;;
6113;SDS011;3087;48.392;10.836;2022-09-03T05:11:51;5.97;;;2.63;;
6113;SDS011;3087;48.392;10.836;2022-09-03T05:14:17;4.22;;;2.90;;
6113;SDS011;3087;48.392;10.836;2022-09-03T05:16:43;3.80;;;3.25;;
6113;SDS011;3087;48.392;10.836;2022-09-03T05:19:08;4.28;;;3.22;;
6113;SDS011;3087;48.392;10.836;2022-09-03T05:21:34;3.72;;;3.25;;
6113;SDS011;3087;48.392;10.836;2022-09-03T05:24:00;4.72;;;2.70;;
6113;SDS011;3087;48.392;10.836;2022-09-03T05:26:28;3.60;;;3.30;;
6113;SDS011;3087;48.392;10.836;2022-09-03T05:28:57;3.25;;;2.88;;
6113;SDS011;3087;48.392;10.836;2022-09-03T05:31:25;5.40;;;3.20;;
6113;SDS011;3087;48.392;10.836;2022-09-03T05:33:53;4.00;;;2.80;;
6113;SDS011;3087;48.392;10.836;2022-09-03T05:36:22;4.70;;;2.80;;
6113;SDS011;3087;48.392;10.836;2022-09-03T05:38:49;3.45;;;3.05;;
6113;SDS011;3087;48.392;10.836;2022-09-03T05:41:18;4.20;;;3.20;;
6113;SDS011;3087;48.392;10.836;2022-09-03T05:43:46;3.58;;;3.10;;
6113;SDS011;3087;48.392;10.836;2022-09-03T05:46:17;3.22;;;2.50;;
6113;SDS011;3087;48.392;10.836;2022-09-03T05:48:43;2.92;;;2.63;;
6113;SDS011;3087;48.392;10.836;2022-09-03T05:51:10;4.88;;;3.28;;
6113;SDS011;3087;48.392;10.836;2022-09-03T05:53:40;5.85;;;3.53;;
6113;SDS011;3087;48.392;10.836;2022-09-03T05:56:08;9.10;;;3.80;;
6113;SDS011;3087;48.392;10.836;2022-09-03T05:58:39;9.65;;;4.07;;
6113;SDS011;3087;48.392;10.836;2022-09-03T06:03:42;4.93;;;3.67;;
6113;SDS011;3087;48.392;10.836;2022-09-03T06:06:10;7.57;;;3.88;;
6113;SDS011;3087;48.392;10.836;2022-09-03T06:08:38;6.82;;;4.10;;
6113;SDS011;3087;48.392;10.836;2022-09-03T06:11:05;5.82;;;3.88;;
6113;SDS011;3087;48.392;10.836;2022-09-03T06:13:31;7.43;;;4.28;;
6113;SDS011;3087;48.392;10.836;2022-09-03T06:15:58;8.10;;;4.45;;
6113;SDS011;3087;48.392;10.836;2022-09-03T06:18:26;6.00;;;3.55;;
6113;SDS011;3087;48.392;10.836;2022-09-03T06:20:53;8.80;;;3.90;;
6113;SDS011;3087;48.392;10.836;2022-09-03T06:23:22;8.90;;;3.10;;
6113;SDS011;3087;48.392;10.836;2022-09-03T06:26:11;4.85;;;3.10;;
6113;SDS011;3087;48.392;10.836;2022-09-03T06:28:38;5.30;;;3.50;;
6113;SDS011;3087;48.392;10.836;2022-09-03T06:31:07;5.28;;;3.70;;
6113;SDS011;3087;48.392;10.836;2022-09-03T06:33:35;5.03;;;4.07;;
6113;SDS011;3087;48.392;10.836;2022-09-03T06:36:03;7.05;;;4.45;;
6113;SDS011;3087;48.392;10.836;2022-09-03T06:38:34;6.35;;;4.38;;
6113;SDS011;3087;48.392;10.836;2022-09-03T06:41:02;4.30;;;3.90;;
6113;SDS011;3087;48.392;10.836;2022-09-03T06:43:30;4.80;;;4.30;;
6113;SDS011;3087;48.392;10.836;2022-09-03T06:46:01;5.97;;;4.72;;
6113;SDS011;3087;48.392;10.836;2022-09-03T06:48:29;7.00;;;4.97;;
6113;SDS011;3087;48.392;10.836;2022-09-03T06:50:57;5.68;;;4.72;;
6113;SDS011;3087;48.392;10.836;2022-09-03T06:53:25;7.93;;;5.10;;
6113;SDS011;3087;48.392;10.836;2022-09-03T06:55:53;9.48;;;4.50;;
6113;SDS011;3087;48.392;10.836;2022-09-03T06:58:24;8.82;;;4.55;;
6113;SDS011;3087;48.392;10.836;2022-09-03T07:00:53;8.40;;;5.07;;
6113;SDS011;3087;48.392;10.836;2022-09-03T07:03:26;7.75;;;5.10;;
6113;SDS011;3087;48.392;10.836;2022-09-03T07:05:51;10.75;;;5.82;;
6113;SDS011;3087;48.392;10.836;2022-09-03T07:08:17;7.47;;;4.82;;
6113;SDS011;3087;48.392;10.836;2022-09-03T07:10:46;7.05;;;4.63;;
6113;SDS011;3087;48.392;10.836;2022-09-03T07:13:12;5.43;;;4.20;;
6113;SDS011;3087;48.392;10.836;2022-09-03T07:15:38;6.43;;;5.20;;
6113;SDS011;3087;48.392;10.836;2022-09-03T07:18:05;7.22;;;4.00;;
6113;SDS011;3087;48.392;10.836;2022-09-03T07:20:31;4.18;;;3.33;;
6113;SDS011;3087;48.392;10.836;2022-09-03T07:22:56;7.75;;;4.43;;
6113;SDS011;3087;48.392;10.836;2022-09-03T07:25:23;5.55;;;4.82;;
6113;SDS011;3087;48.392;10.836;2022-09-03T07:27:50;5.65;;;4.35;;
6113;SDS011;3087;48.392;10.836;2022-09-03T07:30:16;5.20;;;4.70;;
6113;SDS011;3087;48.392;10.836;2022-09-03T07:32:44;3.78;;;3.47;;
6113;SDS011;3087;48.392;10.836;2022-09-03T07:35:10;5.07;;;4.57;;
6113;SDS011;3087;48.392;10.836;2022-09-03T07:37:39;6.07;;;4.68;;
6113;SDS011;3087;48.392;10.836;2022-09-03T07:40:07;4.45;;;4.03;;
6113;SDS011;3087;48.392;10.836;2022-09-03T07:42:34;5.40;;;4.90;;
6113;SDS011;3087;48.392;10.836;2022-09-03T07:45:02;6.30;;;4.78;;
6113;SDS011;3087;48.392;10.836;2022-09-03T07:47:33;5.38;;;4.43;;
6113;SDS011;3087;48.392;10.836;2022-09-03T07:50:00;5.60;;;4.68;;
6113;SDS011;3087;48.392;10.836;2022-09-03T07:52:25;4.68;;;4.28;;
6113;SDS011;3087;48.392;10.836;2022-09-03T07:54:52;5.80;;;4.50;;
6113;SDS011;3087;48.392;10.836;2022-09-03T07:57:17;6.53;;;5.68;;
6113;SDS011;3087;48.392;10.836;2022-09-03T07:59:43;8.27;;;5.13;;
6113;SDS011;3087;48.392;10.836;2022-09-03T08:02:08;5.03;;;4.53;;
6113;SDS011;3087;48.392;10.836;2022-09-03T08:04:34;5.22;;;4.70;;
6113;SDS011;3087;48.392;10.836;2022-09-03T08:07:00;5.13;;;4.63;;
6113;SDS011;3087;48.392;10.836;2022-09-03T08:09:26;4.82;;;4.40;;
6113;SDS011;3087;48.392;10.836;2022-09-03T08:11:52;5.47;;;4.40;;
6113;SDS011;3087;48.392;10.836;2022-09-03T08:14:18;6.05;;;4.50;;
6113;SDS011;3087;48.392;10.836;2022-09-03T08:16:44;5.80;;;3.72;;
6113;SDS011;3087;48.392;10.836;2022-09-03T08:19:12;5.00;;;4.50;;
6113;SDS011;3087;48.392;10.836;2022-09-03T08:21:38;5.90;;;5.30;;
6113;SDS011;3087;48.392;10.836;2022-09-03T08:24:09;4.60;;;3.35;;
6113;SDS011;3087;48.392;10.836;2022-09-03T08:26:36;6.00;;;4.85;;
6113;SDS011;3087;48.392;10.836;2022-09-03T08:29:06;6.30;;;4.85;;
6113;SDS011;3087;48.392;10.836;2022-09-03T08:31:34;5.63;;;5.13;;
6113;SDS011;3087;48.392;10.836;2022-09-03T08:34:00;4.85;;;4.35;;
6113;SDS011;3087;48.392;10.836;2022-09-03T08:36:31;4.95;;;4.45;;
6113;SDS011;3087;48.392;10.836;2022-09-03T08:39:01;5.40;;;4.85;;
6113;SDS011;3087;48.392;10.836;2022-09-03T08:41:38;5.95;;;5.35;;
6113;SDS011;3087;48.392;10.836;2022-09-03T08:44:27;4.90;;;4.43;;
6113;SDS011;3087;48.392;10.836;2022-09-03T08:46:59;4.35;;;3.95;;
6113;SDS011;3087;48.392;10.836;2022-09-03T08:57:50;4.82;;;4.38;;
6113;SDS011;3087;48.392;10.836;2022-09-03T09:00:46;6.88;;;4.70;;
6113;SDS011;3087;48.392;10.836;2022-09-03T09:05:49;6.07;;;5.05;;
6113;SDS011;3087;48.392;10.836;2022-09-03T09:08:42;6.95;;;4.70;;
6113;SDS011;3087;48.392;10.836;2022-09-03T09:11:27;5.65;;;4.30;;
6113;SDS011;3087;48.392;10.836;2022-09-03T09:13:58;4.72;;;4.20;;
6113;SDS011;3087;48.392;10.836;2022-09-03T09:19:41;5.65;;;4.50;;
6113;SDS011;3087;48.392;10.836;2022-09-03T09:23:04;4.78;;;4.35;;
6113;SDS011;3087;48.392;10.836;2022-09-03T09:25:20;5.07;;;4.57;;
6113;SDS011;3087;48.392;10.836;2022-09-03T09:27:50;6.80;;;4.95;;
6113;SDS011;3087;48.392;10.836;2022-09-03T09:30:20;6.03;;;5.10;;
6113;SDS011;3087;48.392;10.836;2022-09-03T09:32:46;3.75;;;3.35;;
6113;SDS011;3087;48.392;10.836;2022-09-03T09:35:12;6.28;;;5.60;;
6113;SDS011;3087;48.392;10.836;2022-09-03T09:37:49;3.70;;;3.40;;
6113;SDS011;3087;48.392;10.836;2022-09-03T09:40:27;5.80;;;3.92;;
6113;SDS011;3087;48.392;10.836;2022-09-03T09:43:03;3.50;;;3.10;;
6113;SDS011;3087;48.392;10.836;2022-09-03T09:45:30;3.22;;;2.90;;
6113;SDS011;3087;48.392;10.836;2022-09-03T09:47:58;3.83;;;3.53;;
6113;SDS011;3087;48.392;10.836;2022-09-03T09:50:25;3.42;;;3.13;;
6113;SDS011;3087;48.392;10.836;2022-09-03T09:53:00;4.25;;;3.30;;
6113;SDS011;3087;48.392;10.836;2022-09-03T09:55:32;4.20;;;3.75;;
6113;SDS011;3087;48.392;10.836;2022-09-03T09:58:05;6.65;;;3.50;;
6113;SDS011;3087;48.392;10.836;2022-09-03T10:00:34;3.20;;;2.90;;
6113;SDS011;3087;48.392;10.836;2022-09-03T10:03:05;4.43;;;3.13;;
6113;SDS011;3087;48.392;10.836;2022-09-03T10:05:35;5.53;;;3.78;;
6113;SDS011;3087;48.392;10.836;2022-09-03T10:08:16;3.95;;;3.58;;
6113;SDS011;3087;48.392;10.836;2022-09-03T10:10:44;4.85;;;3.53;;
6113;SDS011;3087;48.392;10.836;2022-09-03T10:13:17;3.80;;;3.38;;
6113;SDS011;3087;48.392;10.836;2022-09-03T10:15:57;3.15;;;2.85;;
6113;SDS011;3087;48.392;10.836;2022-09-03T10:22:09;3.95;;;2.78;;
6113;SDS011;3087;48.392;10.836;2022-09-03T10:26:50;3.65;;;3.33;;
6113;SDS011;3087;48.392;10.836;2022-09-03T10:29:16;3.28;;;2.97;;
6113;SDS011;3087;48.392;10.836;2022-09-03T10:34:53;2.50;;;2.30;;
6113;SDS011;3087;48.392;10.836;2022-09-03T10:37:41;4.45;;;2.90;;
6113;SDS011;3087;48.392;10.836;2022-09-03T10:40:21;3.67;;;3.25;;
6113;SDS011;3087;48.392;10.836;2022-09-03T10:51:28;3.38;;;3.08;;
6113;SDS011;3087;48.392;10.836;2022-09-03T11:07:44;3.42;;;2.83;;
6113;SDS011;3087;48.392;10.836;2022-09-03T11:15:23;3.20;;;2.90;;
6113;SDS011;3087;48.392;10.836;2022-09-03T11:18:10;2.90;;;2.70;;
6113;SDS011;3087;48.392;10.836;2022-09-03T11:21:00;2.85;;;2.65;;
6113;SDS011;3087;48.392;10.836;2022-09-03T11:23:30;2.83;;;2.30;;
6113;SDS011;3087;48.392;10.836;2022-09-03T11:26:03;2.20;;;2.00;;
6113;SDS011;3087;48.392;10.836;2022-09-03T11:28:37;3.10;;;2.50;;
6113;SDS011;3087;48.392;10.836;2022-09-03T11:34:24;3.05;;;2.72;;
6113;SDS011;3087;48.392;10.836;2022-09-03T11:36:51;2.78;;;2.53;;
6113;SDS011;3087;48.392;10.836;2022-09-03T11:42:00;2.45;;;2.20;;
6113;SDS011;3087;48.392;10.836;2022-09-03T11:44:49;2.58;;;2.38;;
6113;SDS011;3087;48.392;10.836;2022-09-03T11:49:47;2.50;;;2.30;;
6113;SDS011;3087;48.392;10.836;2022-09-03T11:52:29;3.10;;;2.20;;
6113;SDS011;3087;48.392;10.836;2022-09-03T11:55:05;3.17;;;2.50;;
6113;SDS011;3087;48.392;10.836;2022-09-03T11:57:31;3.33;;;2.05;;
6113;SDS011;3087;48.392;10.836;2022-09-03T12:00:10;2.13;;;1.80;;
6113;SDS011;3087;48.392;10.836;2022-09-03T12:02:55;2.65;;;2.08;;
6113;SDS011;3087;48.392;10.836;2022-09-03T12:05:47;4.30;;;2.30;;
6113;SDS011;3087;48.392;10.836;2022-09-03T12:11:45;2.67;;;1.85;;
6113;SDS011;3087;48.392;10.836;2022-09-03T12:16:59;1.90;;;1.80;;
6113;SDS011;3087;48.392;10.836;2022-09-03T12:22:11;2.17;;;1.98;;
6113;SDS011;3087;48.392;10.836;2022-09-03T12:24:42;2.20;;;1.77;;
6113;SDS011;3087;48.392;10.836;2022-09-03T12:27:09;1.83;;;1.73;;
6113;SDS011;3087;48.392;10.836;2022-09-03T12:29:48;2.75;;;1.98;;
6113;SDS011;3087;48.392;10.836;2022-09-03T12:32:20;2.63;;;2.42;;
6113;SDS011;3087;48.392;10.836;2022-09-03T12:34:46;2.53;;;2.22;;
6113;SDS011;3087;48.392;10.836;2022-09-03T12:37:22;3.90;;;3.45;;
6113;SDS011;3087;48.392;10.836;2022-09-03T12:39:51;2.72;;;2.38;;
6113;SDS011;3087;48.392;10.836;2022-09-03T12:44:51;2.60;;;2.40;;
6113;SDS011;3087;48.392;10.836;2022-09-03T12:47:18;2.35;;;2.15;;
6113;SDS011;3087;48.392;10.836;2022-09-03T12:49:46;1.90;;;1.80;;
6113;SDS011;3087;48.392;10.836;2022-09-03T12:55:02;2.13;;;1.92;;
6113;SDS011;3087;48.392;10.836;2022-09-03T13:00:40;2.50;;;2.28;;
6113;SDS011;3087;48.392;10.836;2022-09-03T13:03:25;2.30;;;2.10;;
6113;SDS011;3087;48.392;10.836;2022-09-03T13:06:16;2.08;;;1.90;;
6113;SDS011;3087;48.392;10.836;2022-09-03T13:08:51;3.17;;;2.10;;
6113;SDS011;3087;48.392;10.836;2022-09-03T13:11:25;2.80;;;2.10;;
6113;SDS011;3087;48.392;10.836;2022-09-03T13:41:14;4.30;;;2.50;;
6113;SDS011;3087;48.392;10.836;2022-09-03T13:44:07;2.80;;;2.13;;
6113;SDS011;3087;48.392;10.836;2022-09-03T13:46:47;2.90;;;2.30;;
6113;SDS011;3087;48.392;10.836;2022-09-03T13:52:22;3.47;;;2.30;;
6113;SDS011;3087;48.392;10.836;2022-09-03T13:54:55;2.33;;;2.13;;
6113;SDS011;3087;48.392;10.836;2022-09-03T13:57:27;3.88;;;2.00;;
6113;SDS011;3087;48.392;10.836;2022-09-03T14:00:20;3.42;;;2.38;;
6113;SDS011;3087;48.392;10.836;2022-09-03T14:02:53;2.75;;;2.28;;
6113;SDS011;3087;48.392;10.836;2022-09-03T14:05:59;3.15;;;2.50;;
6113;SDS011;3087;48.392;10.836;2022-09-03T14:14:34;3.50;;;2.83;;
6113;SDS011;3087;48.392;10.836;2022-09-03T14:20:05;2.80;;;2.50;;
6113;SDS011;3087;48.392;10.836;2022-09-03T14:25:27;3.83;;;2.42;;
6113;SDS011;3087;48.392;10.836;2022-09-03T14:27:54;2.63;;;2.42;;
6113;SDS011;3087;48.392;10.836;2022-09-03T14:30:30;2.30;;;1.90;;
6113;SDS011;3087;48.392;10.836;2022-09-03T14:36:54;2.65;;;2.42;;
6113;SDS011;3087;48.392;10.836;2022-09-03T14:39:46;5.50;;;3.33;;
6113;SDS011;3087;48.392;10.836;2022-09-03T14:47:45;3.95;;;2.63;;
6113;SDS011;3087;48.392;10.836;2022-09-03T14:53:17;2.90;;;2.53;;
6113;SDS011;3087;48.392;10.836;2022-09-03T14:58:57;2.75;;;2.28;;
6113;SDS011;3087;48.392;10.836;2022-09-03T15:08:15;4.05;;;2.40;;
6113;SDS011;3087;48.392;10.836;2022-09-03T15:10:44;4.93;;;3.10;;
6113;SDS011;3087;48.392;10.836;2022-09-03T15:15:53;4.65;;;2.83;;
6113;SDS011;3087;48.392;10.836;2022-09-03T15:18:25;3.28;;;2.92;;
6113;SDS011;3087;48.392;10.836;2022-09-03T15:21:47;4.55;;;3.08;;
6113;SDS011;3087;48.392;10.836;2022-09-03T15:24:06;3.00;;;2.42;;
6113;SDS011;3087;48.392;10.836;2022-09-03T15:35:26;5.28;;;2.83;;
6113;SDS011;3087;48.392;10.836;2022-09-03T15:37:56;3.97;;;3.08;;
6113;SDS011;3087;48.392;10.836;2022-09-03T15:43:21;6.10;;;3.05;;
6113;SDS011;3087;48.392;10.836;2022-09-03T15:45:58;5.10;;;3.40;;
6113;SDS011;3087;48.392;10.836;2022-09-03T15:53:56;4.15;;;3.13;;
6113;SDS011;3087;48.392;10.836;2022-09-03T16:04:49;3.92;;;2.95;;
6113;SDS011;3087;48.392;10.836;2022-09-03T16:07:22;3.50;;;3.20;;
6113;SDS011;3087;48.392;10.836;2022-09-03T16:12:39;3.17;;;2.50;;
6113;SDS011;3087;48.392;10.836;2022-09-03T16:15:11;4.50;;;3.85;;
6113;SDS011;3087;48.392;10.836;2022-09-03T16:20:40;3.42;;;2.70;;
6113;SDS011;3087;48.392;10.836;2022-09-03T16:23:18;4.22;;;2.90;;
6113;SDS011;3087;48.392;10.836;2022-09-03T16:25:51;3.47;;;3.08;;
6113;SDS011;3087;48.392;10.836;2022-09-03T16:28:29;2.90;;;2.50;;
6113;SDS011;3087;48.392;10.836;2022-09-03T16:36:56;2.72;;;2.30;;
6113;SDS011;3087;48.392;10.836;2022-09-03T16:42:42;3.22;;;2.65;;
6113;SDS011;3087;48.392;10.836;2022-09-03T17:02:12;2.25;;;2.05;;
6113;SDS011;3087;48.392;10.836;2022-09-03T17:07:46;3.67;;;2.83;;
6113;SDS011;3087;48.392;10.836;2022-09-03T17:21:08;3.20;;;2.75;;
6113;SDS011;3087;48.392;10.836;2022-09-03T17:29:46;2.60;;;2.40;;
6113;SDS011;3087;48.392;10.836;2022-09-03T17:31:49;6.20;;;3.63;;
6113;SDS011;3087;48.392;10.836;2022-09-03T17:40:24;3.25;;;2.17;;
6113;SDS011;3087;48.392;10.836;2022-09-03T17:43:24;2.80;;;2.50;;
6113;SDS011;3087;48.392;10.836;2022-09-03T17:45:55;3.30;;;2.55;;
6113;SDS011;3087;48.392;10.836;2022-09-03T17:51:41;3.47;;;2.70;;
6113;SDS011;3087;48.392;10.836;2022-09-03T17:59:49;4.00;;;2.50;;
6113;SDS011;3087;48.392;10.836;2022-09-03T18:02:28;4.53;;;2.67;;
6113;SDS011;3087;48.392;10.836;2022-09-03T18:07:38;3.95;;;2.90;;
6113;SDS011;3087;48.392;10.836;2022-09-03T18:10:18;3.65;;;3.30;;
6113;SDS011;3087;48.392;10.836;2022-09-03T18:13:10;3.20;;;2.60;;
6113;SDS011;3087;48.392;10.836;2022-09-03T18:15:47;3.17;;;2.88;;
6113;SDS011;3087;48.392;10.836;2022-09-03T18:18:35;3.75;;;2.60;;
6113;SDS011;3087;48.392;10.836;2022-09-03T18:21:09;4.57;;;3.17;;
6113;SDS011;3087;48.392;10.836;2022-09-03T18:26:46;3.28;;;2.80;;
6113;SDS011;3087;48.392;10.836;2022-09-03T18:29:53;4.38;;;3.08;;
6113;SDS011;3087;48.392;10.836;2022-09-03T18:32:44;5.30;;;4.28;;
6113;SDS011;3087;48.392;10.836;2022-09-03T18:35:28;4.68;;;3.65;;
6113;SDS011;3087;48.392;10.836;2022-09-03T18:38:13;7.13;;;4.28;;
6113;SDS011;3087;48.392;10.836;2022-09-03T18:44:02;4.03;;;3.63;;
6113;SDS011;3087;48.392;10.836;2022-09-03T18:47:00;3.90;;;3.50;;
6113;SDS011;3087;48.392;10.836;2022-09-03T18:50:23;5.85;;;3.40;;
6113;SDS011;3087;48.392;10.836;2022-09-03T18:53:24;6.28;;;3.20;;
6113;SDS011;3087;48.392;10.836;2022-09-03T18:56:22;4.80;;;3.60;;
6113;SDS011;3087;48.392;10.836;2022-09-03T19:01:56;7.80;;;4.25;;
6113;SDS011;3087;48.392;10.836;2022-09-03T19:04:47;3.92;;;3.10;;
6113;SDS011;3087;48.392;10.836;2022-09-03T19:07:54;3.78;;;3.13;;
6113;SDS011;3087;48.392;10.836;2022-09-03T19:14:03;3.72;;;3.22;;
6113;SDS011;3087;48.392;10.836;2022-09-03T19:16:57;4.47;;;3.10;;
6113;SDS011;3087;48.392;10.836;2022-09-03T19:20:04;3.85;;;3.17;;
6113;SDS011;3087;48.392;10.836;2022-09-03T19:23:01;4.20;;;3.42;;
6113;SDS011;3087;48.392;10.836;2022-09-03T19:25:46;3.70;;;3.28;;
6113;SDS011;3087;48.392;10.836;2022-09-03T19:28:31;4.15;;;3.75;;
6113;SDS011;3087;48.392;10.836;2022-09-03T19:31:40;4.18;;;3.70;;
6113;SDS011;3087;48.392;10.836;2022-09-03T19:34:33;4.28;;;3.85;;
6113;SDS011;3087;48.392;10.836;2022-09-03T19:37:34;4.20;;;3.78;;
6113;SDS011;3087;48.392;10.836;2022-09-03T19:52:09;4.25;;;3.85;;
6113;SDS011;3087;48.392;10.836;2022-09-03T19:55:05;4.57;;;3.97;;
6113;SDS011;3087;48.392;10.836;2022-09-03T19:57:55;4.35;;;3.72;;
6113;SDS011;3087;48.392;10.836;2022-09-03T20:00:43;8.13;;;4.38;;
6113;SDS011;3087;48.392;10.836;2022-09-03T20:03:27;3.55;;;3.25;;
6113;SDS011;3087;48.392;10.836;2022-09-03T20:06:12;3.90;;;3.30;;
6113;SDS011;3087;48.392;10.836;2022-09-03T20:09:04;5.60;;;3.92;;
6113;SDS011;3087;48.392;10.836;2022-09-03T20:11:55;4.45;;;3.70;;
6113;SDS011;3087;48.392;10.836;2022-09-03T20:14:24;4.65;;;4.25;;
6113;SDS011;3087;48.392;10.836;2022-09-03T20:19:40;4.10;;;3.67;;
6113;SDS011;3087;48.392;10.836;2022-09-03T20:22:32;4.00;;;3.60;;
6113;SDS011;3087;48.392;10.836;2022-09-03T20:25:17;4.68;;;3.85;;
6113;SDS011;3087;48.392;10.836;2022-09-03T20:30:30;4.53;;;3.90;;
6113;SDS011;3087;48.392;10.836;2022-09-03T20:33:05;5.32;;;4.00;;
6113;SDS011;3087;48.392;10.836;2022-09-03T20:35:58;5.00;;;4.00;;
6113;SDS011;3087;48.392;10.836;2022-09-03T20:38:54;5.55;;;4.10;;
6113;SDS011;3087;48.392;10.836;2022-09-03T20:45:01;3.80;;;3.50;;
6113;SDS011;3087;48.392;10.836;2022-09-03T20:55:35;5.80;;;4.45;;
6113;SDS011;3087;48.392;10.836;2022-09-03T21:01:08;4.55;;;3.70;;
6113;SDS011;3087;48.392;10.836;2022-09-03T21:15:17;6.25;;;4.75;;
6113;SDS011;3087;48.392;10.836;2022-09-03T21:23:34;5.43;;;4.28;;
6113;SDS011;3087;48.392;10.836;2022-09-03T21:28:36;6.00;;;4.10;;
6113;SDS011;3087;48.392;10.836;2022-09-03T21:33:44;4.40;;;4.00;;
6113;SDS011;3087;48.392;10.836;2022-09-03T21:38:57;5.38;;;3.35;;
6113;SDS011;3087;48.392;10.836;2022-09-03T21:41:31;6.35;;;5.20;;
6113;SDS011;3087;48.392;10.836;2022-09-03T21:46:36;5.03;;;4.05;;